Terminal Aerodrome Forecast
Issued by NWS Billings, MT

Home | Current Version | Previous Version | Text Only | Print | Product List | Glossary Off
Versions: 1 2 3 4 5 6 7 8 9 10 11 12 13 14 15 16 17 18 19 20 21 22 23 24 25 26 27 28 29 30 31 32 33 34 35 36 37 38 39 40 41 42 43 44

000
FTUS45 KBYZ 252335
TAFMLS
TAF
KMLS 252335Z 2600/2624 32016G26KT P6SM SCT040
     FM260600 33014KT P6SM VCSH SCT040 BKN060
     FM261200 34006KT 4SM -SN BR SCT015 OVC020
     FM261800 04006KT 2SM -SN BR OVC015=

USA.gov is the U.S. government's official web portal to all federal, state and local government web resources and services.